Date,TemperatureHighF,TemperatureAvgF,TemperatureLowF,DewpointHighF,DewpointAvgF,DewpointLowF,HumidityHigh,HumidityAvg,HumidityLow,PressureMaxIn,PressureMinIn,WindSpeedMaxMPH,WindSpeedAvgMPH,GustSpeedMaxMPH,PrecipitationSumIn
2014-1-1,18,14,11,10,7,3,77,72,66,18.58,18.58,18,6,33,0.00
2014-1-2,15,10,-3,6,0,-15,71,64,55,18.58,18.58,24,9,44,0.00
2014-1-3,22,5,-11,1,-10,-23,55,50,37,18.58,18.58,18,4,40,0.00
2014-1-4,36,25,14,24,12,0,82,58,42,18.58,18.58,26,6,44,0.00
2014-1-5,31,25,17,28,22,13,90,87,82,18.58,18.58,19,5,33,0.00
2014-1-6,17,0,-13,13,-4,-17,85,84,83,18.58,18.58,12,4,24,0.00
2014-1-7,6,-6,-14,3,-9,-17,84,84,84,18.58,18.58,9,2,16,0.00
2014-1-8,24,1,-15,13,-6,-18,84,71,56,18.58,18.58,4,0,7,0.00
2014-1-9,23,8,-9,18,-2,-20,82,64,58,18.58,18.58,9,3,16,0.00
2014-1-10,41,33,23,40,30,18,98,91,82,18.58,18.58,22,5,40,0.00
2014-1-11,41,35,32,40,35,31,98,98,98,18.58,18.58,15,4,32,0.00
2014-1-12,38,34,29,35,29,24,98,84,61,18.58,18.58,20,4,39,0.00
2014-1-13,45,38,33,32,28,25,81,66,57,18.58,18.58,19,5,39,0.00
2014-1-14,38,29,22,28,21,14,89,73,42,18.58,18.58,20,6,34,0.00
2014-1-15,31,22,11,22,14,-1,82,71,55,18.58,18.58,12,4,22,0.00
2014-1-16,31,24,12,25,16,3,86,73,62,18.58,18.58,22,7,38,0.00
2014-1-17,29,21,13,20,11,2,79,67,52,18.58,18.58,11,4,19,0.00
2014-1-18,24,17,12,9,7,5,75,65,49,18.58,18.58,12,4,23,0.00
2014-1-19,32,23,14,27,15,8,81,71,51,18.58,18.58,16,4,32,0.00
2014-1-20,37,28,12,28,18,2,79,67,50,18.58,18.58,24,5,40,0.00
2014-1-21,15,9,1,4,-6,-11,63,52,37,18.58,18.58,26,8,48,0.00
2014-1-22,17,10,6,0,-8,-14,51,43,39,18.58,18.58,13,5,25,0.00
2014-1-23,28,12,4,13,-4,-12,70,49,42,18.58,18.58,9,1,16,0.00
2014-1-24,20,8,-9,14,-7,-24,79,51,42,18.58,18.58,161,6,50,0.00
2014-1-25,28,19,10,24,10,-2,88,68,48,18.58,18.58,19,7,32,0.00
2014-1-26,31,17,6,20,6,-6,81,61,52,18.58,18.58,16,5,27,0.00
2014-1-27,20,7,-4,9,-4,-20,74,60,46,18.58,18.58,14,2,25,0.00
2014-1-28,13,-4,-13,-4,-19,-28,46,46,46,18.58,18.58,4,0,167,0.00
2014-1-29,21,6,-6,2,-10,-21,52,45,43,18.58,18.58,15,3,27,0.00
2014-1-30,30,21,12,24,6,-6,79,53,40,18.58,18.58,26,8,42,0.00
2014-1-31,34,27,22,25,17,10,79,65,49,18.58,18.58,12,2,22,0.00
2014-2-1,33,27,23,29,22,15,87,81,70,18.58,18.58,9,2,16,0.00
2014-2-2,36,23,6,20,13,-4,82,66,44,18.58,18.58,10,3,17,0.00
2014-2-3,33,8,-8,15,-5,-18,66,55,41,18.58,18.58,9,0,14,0.00
2014-2-4,32,13,0,16,0,-13,77,56,45,18.58,18.58,18,2,32,0.00
2014-2-5,34,21,14,23,13,3,85,71,52,18.58,18.58,24,8,41,0.00
2014-2-6,22,12,-1,10,0,-17,73,58,46,18.58,18.58,12,4,21,0.00
2014-2-7,22,4,-4,3,-12,-20,54,46,41,18.58,18.58,11,4,19,0.00
2014-2-8,26,12,2,7,-4,-15,57,48,42,18.58,18.58,12,1,21,0.00
2014-2-9,33,17,10,14,4,-2,72,56,42,18.58,18.58,11,2,19,0.00
2014-2-10,27,14,7,11,-1,-10,62,52,42,18.58,18.58,9,2,19,0.00
2014-2-11,28,8,-8,8,-10,-25,60,45,38,18.58,18.58,9,0,17,0.00
2014-2-12,33,10,-8,9,-8,-25,60,42,33,18.58,18.58,12,2,21,0.00
2014-2-13,36,22,3,15,4,-10,58,47,32,29.72,18.58,13,4,30,0.00
2014-2-14,35,24,14,18,13,0,74,61,42,29.86,29.48,16,4,26,0.00
2014-2-15,35,19,10,14,7,0,71,59,40,30.07,29.86,9,1,16,0.00
2014-2-16,39,23,12,19,9,0,70,57,41,30.28,29.92,10,2,19,0.00
2014-2-17,23,18,10,18,7,-1,82,64,50,30.31,29.66,20,8,36,0.00
2014-2-18,47,33,23,30,22,17,82,65,44,30.01,29.69,18,5,33,0.00
2014-2-19,48,36,30,34,25,19,81,65,41,30.01,29.63,11,3,18,0.00
2014-2-20,47,36,31,47,33,23,98,88,73,30.01,29.33,20,7,38,0.00
2014-2-21,40,32,26,34,24,9,98,74,43,29.80,29.45,23,8,41,0.00
2014-2-22,38,29,21,20,12,7,61,50,38,30.01,29.80,13,5,27,0.00
2014-2-23,35,23,17,14,9,3,67,54,40,30.16,30.01,12,4,21,0.00
2014-2-24,35,22,17,13,6,1,60,52,38,30.22,30.13,13,4,24,0.00
2014-2-25,32,21,13,15,8,1,68,56,41,30.16,30.07,13,3,206,0.00
2014-2-26,27,13,5,6,-4,-13,61,48,35,30.13,29.66,15,6,33,0.00
2014-2-27,23,10,-11,8,-4,-26,74,55,36,30.22,29.57,12,5,26,0.00
2014-2-28,27,7,-16,5,-11,-30,48,43,33,30.28,30.04,16,5,31,0.00
2014-3-1,34,24,13,17,9,4,67,53,40,30.31,30.01,11,4,21,0.00
2014-3-2,37,16,2,14,3,-12,68,56,34,30.40,30.25,13,4,26,0.00
2014-3-3,25,6,-8,0,-12,-23,51,42,33,30.48,30.37,12,2,23,0.00
2014-3-4,32,17,-1,5,-5,-22,49,37,31,30.40,30.19,154,1,22,0.00
2014-3-5,34,21,14,16,7,1,71,55,42,30.45,30.25,14,5,25,0.00
2014-3-6,41,21,8,13,4,-4,59,49,31,30.45,30.13,9,5,20,0.00
2014-3-7,51,30,11,25,13,-1,70,50,28,30.13,29.92,9,2,20,0.00
2014-3-8,43,32,17,29,21,8,78,63,44,30.22,29.95,9,4,20,0.00
2014-3-9,44,28,11,27,16,4,77,61,38,30.22,29.86,12,4,31,0.00
2014-3-10,55,41,34,32,28,26,76,62,37,29.86,29.63,141,4,235,0.00
2014-3-11,56,40,33,39,31,24,85,71,39,29.78,29.66,18,2,32,0.00
2014-3-12,36,27,9,33,22,1,98,83,61,30.07,29.63,20,2,33,0.00
2014-3-13,35,17,-6,23,7,-13,79,67,50,30.16,29.92,0,0,0,0.00
2014-3-14,52,39,27,38,29,21,83,68,50,29.92,29.60,20,7,33,0.00
2014-3-15,48,35,28,28,22,9,80,60,39,30.28,29.80,18,5,112,0.00
2014-3-16,28,21,11,9,1,-6,55,42,34,30.37,30.16,23,10,41,0.00
2014-3-17,38,21,8,13,4,-5,56,48,32,30.16,29.86,12,6,22,0.00
2014-3-18,48,33,21,29,20,10,76,61,41,29.98,29.78,13,7,27,0.00
2014-3-19,43,38,33,41,34,28,95,88,73,29.92,29.63,12,5,25,0.00
2014-3-20,49,36,26,31,24,15,92,64,39,30.07,29.92,12,4,246,0.00
2014-3-21,49,36,25,37,26,16,88,68,48,30.07,29.72,16,5,145,0.00
2014-3-22,46,35,26,38,27,14,93,74,51,30.28,29.75,12,5,21,0.00
2014-3-23,38,24,15,14,7,0,62,48,35,30.40,30.28,18,5,32,0.00
2014-3-24,41,25,14,20,8,1,63,49,34,30.37,30.10,12,2,21,0.00
2014-3-25,36,26,19,18,10,3,69,50,41,30.19,29.95,15,5,26,0.00
2014-3-26,41,26,12,18,10,3,73,52,35,30.34,30.07,13,3,22,0.00
2014-3-27,45,37,32,38,24,0,82,61,40,30.07,29.57,25,8,49,0.00
2014-3-28,49,38,29,43,32,22,87,79,70,30.19,29.51,21,7,39,0.00
2014-3-29,41,34,27,32,27,20,88,76,51,30.22,30.13,16,4,36,0.00
2014-3-30,57,37,22,34,24,18,88,62,36,30.28,30.10,8,1,16,0.00
2014-3-31,68,50,34,32,27,23,65,43,22,30.13,29.86,19,6,44,0.00
2014-4-1,54,47,36,40,28,21,70,49,37,30.07,29.75,32,7,63,0.00
2014-4-2,59,44,30,28,23,0,71,46,25,30.19,30.04,11,2,21,0.00
2014-4-3,46,38,32,38,31,21,98,77,40,30.10,29.75,22,8,40,0.00
2014-4-4,45,38,33,44,38,32,98,98,96,29.86,29.48,16,7,32,0.00
2014-4-5,55,39,28,32,25,15,96,62,28,30.19,29.86,16,5,27,0.00
2014-4-6,61,42,27,27,21,15,70,46,25,30.22,30.01,13,2,22,0.00
2014-4-7,53,40,32,39,29,20,94,67,29,30.01,29.60,20,2,33,0.00
2014-4-8,63,44,33,46,34,26,97,73,35,29.89,29.60,12,4,23,0.00
2014-4-9,68,46,28,33,27,23,82,53,24,30.04,29.89,16,2,26,0.00
2014-4-10,71,53,40,42,33,26,68,47,31,29.92,29.72,16,5,38,0.00
2014-4-11,74,52,33,40,28,18,84,48,14,30.04,29.92,9,1,16,0.00
2014-4-12,76,61,48,45,33,20,47,36,22,30.07,29.78,28,5,47,0.00
2014-4-13,78,65,60,57,49,43,85,58,35,29.78,29.57,17,5,32,0.00
2014-4-14,64,45,28,56,36,22,84,70,54,29.92,29.39,29,8,48,0.00
2014-4-15,43,30,22,23,15,6,81,54,32,30.25,29.89,15,6,25,0.00
2014-4-16,54,37,23,21,15,10,60,43,26,30.40,30.25,16,6,122,0.00
2014-4-17,72,50,34,33,26,19,55,40,22,30.28,30.19,20,6,33,0.00
2014-4-18,70,52,35,41,32,17,76,49,25,30.34,30.25,11,2,19,0.00
2014-4-19,70,49,33,34,26,18,76,44,23,30.42,30.28,74,5,122,0.00
2014-4-20,80,58,38,34,26,20,54,33,15,30.31,30.07,12,4,21,0.00
2014-4-21,86,64,52,54,36,25,83,38,19,30.07,29.80,13,3,25,0.00
2014-4-22,59,50,37,55,34,20,88,57,33,30.04,29.75,19,7,38,0.00
2014-4-23,67,46,29,29,23,19,66,44,23,30.16,30.04,16,3,229,0.00
2014-4-24,65,52,44,30,24,19,50,35,21,30.13,29.80,20,8,42,0.00
2014-4-25,68,50,41,50,40,23,95,69,38,29.83,29.66,13,4,242,0.00
2014-4-26,65,51,39,37,32,26,70,50,28,30.04,29.83,11,3,22,0.00
2014-4-27,64,50,40,32,26,20,64,42,25,30.13,29.95,20,9,33,0.00
2014-4-28,60,50,43,40,31,23,78,50,36,29.98,29.69,22,11,112,0.00
2014-4-29,78,58,48,61,44,31,97,65,21,29.72,29.51,24,6,42,0.00
2014-4-30,64,54,42,46,41,34,78,63,39,29.83,29.72,16,4,26,0.00
2014-5-1,53,45,39,46,38,32,87,77,68,29.83,29.75,17,5,28,0.00
2014-5-2,57,48,44,48,42,40,91,82,68,29.83,29.78,9,4,18,0.00
2014-5-3,68,54,45,50,39,29,87,62,26,29.86,29.66,16,4,39,0.00
2014-5-4,64,51,41,35,27,20,65,41,24,30.10,29.86,16,4,27,0.00
2014-5-5,65,51,40,36,28,24,63,44,24,30.10,29.95,16,4,32,0.00
2014-5-6,72,55,38,37,32,28,75,46,23,30.07,29.95,13,5,24,0.00
2014-5-7,75,61,50,46,38,30,58,44,33,30.01,29.86,16,8,27,0.00
2014-5-8,94,72,53,58,49,42,73,47,24,29.95,29.83,18,6,31,0.00
2014-5-9,82,69,54,61,53,39,86,59,38,29.86,29.69,26,5,50,0.00
2014-5-10,80,62,46,48,38,28,74,46,20,30.01,29.86,11,2,21,0.00
2014-5-11,89,68,49,57,45,37,79,48,24,30.04,29.89,14,2,26,0.00
2014-5-12,89,73,60,67,61,55,89,68,42,29.98,29.89,13,4,120,0.00
2014-5-13,83,67,54,71,60,46,94,78,49,30.13,29.86,14,3,30,0.00
2014-5-14,59,53,49,50,46,37,98,79,48,30.16,29.92,16,3,32,0.00
2014-5-15,52,45,36,51,44,33,98,95,81,30.07,29.78,24,6,40,0.00
2014-5-16,52,41,32,50,38,0,97,90,77,30.10,30.01,9,1,16,0.00
2014-5-17,66,48,33,49,35,27,91,64,31,30.19,30.07,9,1,21,0.00
2014-5-18,76,56,38,44,35,30,76,48,23,30.28,30.19,16,2,27,0.00
2014-5-19,77,60,45,42,35,31,64,42,22,30.31,30.07,13,3,27,0.00
2014-5-20,90,71,56,59,50,39,65,49,31,30.13,29.86,13,4,24,0.00
2014-5-21,89,74,63,69,58,41,95,64,21,29.89,29.80,9,1,16,0.00
2014-5-22,78,63,52,51,42,35,81,49,24,30.10,29.89,15,4,25,0.00
2014-5-23,77,59,45,47,39,34,81,51,25,30.19,30.10,12,3,22,0.00
2014-5-24,88,63,44,54,41,36,79,50,21,30.25,30.16,9,1,16,0.00
2014-5-25,90,70,53,55,44,36,83,46,18,30.19,30.04,11,1,19,0.00
2014-5-26,94,73,58,63,51,46,82,50,25,30.10,29.92,11,1,22,0.00
2014-5-27,87,74,66,73,63,57,95,72,42,30.01,29.89,11,1,19,0.00
2014-5-28,83,70,63,63,59,55,84,68,42,30.07,29.92,9,2,19,0.00
2014-5-29,87,71,58,59,49,37,84,52,20,30.13,30.04,12,3,25,0.00
2014-5-30,91,72,56,59,48,0,81,48,19,30.22,30.13,9,1,16,0.00
2014-5-31,95,75,58,55,49,41,81,46,18,30.22,30.10,8,1,14,0.00
2014-6-1,94,76,60,56,46,40,53,36,18,30.16,29.92,12,3,21,0.00
2014-6-2,83,74,68,74,63,0,91,68,46,29.98,29.83,16,3,31,0.00
2014-6-3,83,73,60,67,54,37,90,58,22,29.95,29.83,13,3,25,0.00
2014-6-4,65,61,56,62,55,48,95,81,62,29.92,29.83,9,2,19,0.00
2014-6-5,83,64,49,60,47,37,95,62,22,29.98,29.89,11,2,20,0.00
2014-6-6,87,67,51,54,42,32,80,47,16,30.04,29.95,9,1,17,0.00
2014-6-7,92,71,55,55,49,43,77,50,20,30.04,29.86,8,1,14,0.00
2014-6-8,85,69,60,66,56,50,97,67,38,30.01,29.80,12,3,21,0.00
2014-6-9,86,70,57,60,53,45,85,58,29,30.04,29.92,9,2,16,0.00
2014-6-10,79,68,62,62,55,48,92,66,36,29.95,29.80,9,2,16,0.00
2014-6-11,83,69,63,78,66,62,98,93,70,29.80,29.69,9,2,19,0.00
2014-6-12,85,68,60,64,60,54,94,76,43,29.83,29.72,11,1,19,0.00
2014-6-13,76,64,51,54,43,0,76,50,25,30.04,29.80,13,4,26,0.00
2014-6-14,87,65,48,54,43,35,88,51,20,30.16,30.01,7,1,13,0.00
2014-6-15,88,71,56,58,50,42,66,49,28,30.07,29.89,13,3,22,0.00
2014-6-16,95,79,67,68,58,47,81,53,21,30.07,29.95,9,1,14,0.00
2014-6-17,95,81,72,68,62,53,74,55,29,29.98,29.83,12,3,33,0.00
2014-6-18,74,73,71,67,65,62,81,76,70,29.95,29.89,5,0,10,0.00
2014-6-19,82,76,69,64,61,58,78,60,50,30.10,30.07,9,4,19,0.00
2014-6-20,81,70,65,69,62,58,88,75,60,30.07,29.92,9,3,20,0.00
2014-6-21,88,72,61,66,61,57,91,71,39,30.01,29.86,8,1,16,0.00
2014-6-22,91,75,64,75,65,58,98,75,40,29.95,29.86,8,0,13,0.00
2014-6-23,86,70,66,82,67,61,98,89,71,29.92,29.83,5,0,10,0.00
2014-6-24,84,72,68,82,71,66,98,95,88,29.89,29.86,8,0,16,0.00
2014-6-25,88,74,65,70,64,56,96,75,41,30.01,29.89,9,1,16,0.00
2014-6-26,89,73,65,65,61,56,89,70,35,30.07,30.01,9,0,16,0.00
2014-6-27,92,76,63,72,63,58,93,68,39,30.10,30.01,8,2,16,0.00
2014-6-28,91,77,68,74,65,60,82,67,44,30.10,29.98,9,3,16,0.00
2014-6-29,93,80,72,69,65,58,84,62,33,30.01,29.92,12,2,21,0.00
2014-6-30,87,80,71,68,66,65,87,66,51,29.98,29.66,9,2,17,0.00
2014-7-1,87,4,0,67,3,0,51,2,51,29.80,29.60,12,2,26,0.00
2014-7-2,81,66,0,55,37,0,66,35,17,29.98,29.78,11,2,18,0.00
2014-7-3,78,64,52,55,34,21,81,38,18,30.19,29.98,13,3,162,0.00
2014-7-4,86,66,52,56,44,34,86,51,20,30.31,30.19,97,2,162,0.00
2014-7-5,82,67,54,55,51,46,81,59,33,30.31,30.07,11,0,19,0.00
2014-7-6,86,73,61,67,59,53,78,64,45,30.07,29.75,11,2,21,0.00
2014-7-7,92,78,68,77,68,57,95,74,39,29.78,29.69,13,2,33,0.00
2014-7-8,86,74,64,71,62,52,91,68,39,29.80,29.60,9,2,20,0.00
2014-7-9,85,70,58,64,53,45,86,58,30,30.04,29.80,11,2,19,0.00
2014-7-10,86,67,54,59,48,40,84,55,22,30.19,30.04,9,1,16,0.00
2014-7-11,90,70,55,62,54,49,85,62,29,30.25,30.13,7,0,14,0.00
2014-7-12,84,72,64,68,62,56,81,72,50,30.16,29.89,9,1,18,0.00
2014-7-13,73,73,73,67,67,67,81,81,80,29.89,29.86,9,6,16,0.00
2014-7-14,77,68,62,71,62,54,97,82,56,29.89,29.78,8,0,13,0.00
2014-7-15,77,64,56,58,52,45,87,68,38,29.95,29.80,12,2,20,0.00
2014-7-16,75,62,52,58,48,43,87,63,35,30.04,29.95,8,2,14,0.00
2014-7-17,84,64,49,56,47,43,86,59,30,30.16,30.04,5,0,13,0.00
2014-7-18,84,67,54,60,52,48,86,62,33,30.22,30.13,5,0,10,0.00
2014-7-19,89,70,56,60,54,49,86,61,28,30.13,30.01,6,1,13,0.00
2014-7-20,90,72,59,64,58,53,87,64,35,30.07,30.01,6,0,10,0.00
2014-7-21,93,75,61,67,61,57,88,65,36,30.13,30.04,9,0,16,0.00
2014-7-22,94,78,65,68,64,60,86,65,38,30.10,29.95,11,1,19,0.00
2014-7-23,81,70,60,68,60,52,100,75,44,30.10,29.95,16,3,28,0.00
2014-7-24,83,66,55,59,52,46,94,67,34,30.16,30.07,12,2,21,0.00
2014-7-25,81,64,52,62,55,49,92,74,41,30.10,29.95,9,0,16,0.00
2014-7-26,84,70,60,70,62,56,90,77,55,29.98,29.80,5,0,10,0.00
2014-7-27,90,72,64,75,64,49,97,78,36,29.83,29.66,13,2,25,0.00
2014-7-28,76,64,51,58,52,44,85,67,40,30.04,29.80,9,2,21,0.00
2014-7-29,84,63,48,62,51,44,90,68,37,30.04,29.98,9,1,16,0.00
2014-7-30,84,67,56,64,55,50,90,68,38,30.04,29.98,10,1,16,0.00
2014-7-31,88,69,53,62,55,0,88,66,36,30.04,30.01,9,1,22,0.00
2014-8-1,87,71,60,65,59,55,88,69,39,30.10,30.04,9,0,16,0.00
2014-8-2,91,71,58,66,57,51,92,66,32,30.16,30.07,7,0,14,0.00
2014-8-3,93,71,54,65,57,49,88,65,32,30.16,30.07,6,0,11,0.00
2014-8-4,93,74,62,70,61,56,87,66,35,30.13,30.04,10,0,17,0.00
2014-8-5,87,70,64,80,67,59,100,90,53,30.07,30.01,8,0,14,0.00
2014-8-6,86,70,60,75,60,51,100,77,33,30.07,30.01,16,2,26,0.00
2014-8-7,88,70,56,67,58,51,97,71,34,30.13,30.04,9,0,16,0.00
2014-8-8,87,70,60,65,58,51,94,69,35,30.13,30.04,9,1,22,0.00
2014-8-9,85,70,61,60,56,47,90,64,30,30.13,30.04,12,2,21,0.00
2014-8-10,89,73,60,66,60,-6,87,67,39,30.07,29.95,9,1,18,0.00
2014-8-11,86,72,67,81,67,60,100,83,67,29.98,29.78,11,1,20,0.00
2014-8-12,70,64,58,66,60,52,94,86,68,29.95,29.72,11,3,21,0.00
2014-8-13,85,66,52,64,55,48,97,73,36,30.01,29.95,9,1,16,0.00
2014-8-14,79,62,50,51,45,37,87,59,28,30.10,30.01,11,2,21,0.00
2014-8-15,84,61,44,58,46,39,87,62,27,30.10,29.98,8,0,13,0.00
2014-8-16,89,68,53,69,56,45,81,68,44,29.98,29.89,8,0,18,0.00
2014-8-17,85,72,65,69,64,61,91,76,49,29.98,29.92,12,2,21,0.00
2014-8-18,88,74,65,69,64,60,91,72,48,29.95,29.80,8,0,13,0.00
2014-8-19,87,72,65,74,67,59,95,85,50,29.83,29.72,12,1,20,0.00
2014-8-20,89,74,65,72,66,62,97,77,48,29.95,29.75,9,0,14,0.00
2014-8-21,86,74,67,74,68,64,93,82,59,30.01,29.92,9,0,17,0.00
2014-8-22,89,77,68,75,70,4,96,81,4,29.98,29.89,6,0,12,0.00
2014-8-23,89,77,70,76,70,64,97,80,53,30.04,29.95,9,1,14,0.00
2014-8-24,89,76,68,73,66,62,90,74,50,30.07,30.01,7,2,12,0.00
2014-8-25,97,75,68,78,69,65,94,82,43,30.07,29.98,10,0,128,0.00
2014-8-26,81,71,67,79,70,65,100,97,91,30.13,30.04,11,0,22,0.00
2014-8-27,85,69,61,74,63,54,100,84,40,30.16,30.10,9,2,20,0.00
2014-8-28,82,67,55,66,59,54,97,78,48,30.16,30.07,9,2,19,0.00
2014-8-29,83,70,64,74,64,58,93,82,60,30.07,29.95,67,2,111,0.00
2014-8-30,85,74,68,74,69,64,99,87,56,29.98,29.86,12,2,21,0.00
2014-8-31,90,75,66,81,69,62,100,85,48,29.98,29.89,9,0,20,0.00
2014-9-1,82,73,68,75,69,63,99,88,62,29.92,29.78,11,2,22,0.00
2014-9-2,89,73,63,71,64,53,96,76,42,29.95,29.83,9,0,16,0.00
2014-9-3,89,71,61,67,60,54,95,71,34,30.04,29.95,9,0,14,0.00
2014-9-4,86,73,66,74,64,58,90,75,56,30.07,29.95,12,2,26,0.00
2014-9-5,93,76,66,79,69,58,100,81,48,30.01,29.89,9,2,21,0.00
2014-9-6,79,67,55,67,59,48,100,80,37,30.16,30.01,8,1,16,0.00
2014-9-7,82,64,52,63,54,50,97,74,40,30.22,30.13,6,0,12,0.00
2014-9-8,84,65,54,64,55,50,96,74,39,30.19,30.04,6,1,13,0.00
2014-9-9,85,68,59,64,58,55,91,73,44,30.07,29.92,8,1,17,0.00
2014-9-10,75,68,60,74,65,56,99,89,79,29.92,29.60,9,3,22,0.00
2014-9-11,60,55,52,56,52,47,97,91,77,30.22,29.78,12,3,20,0.00
2014-9-12,59,53,48,50,47,44,94,81,63,30.31,30.19,12,3,24,0.00
2014-9-13,68,53,45,57,48,42,100,85,53,30.34,30.16,11,2,19,0.00
2014-9-14,69,54,44,55,46,0,100,77,39,30.34,30.19,9,1,20,0.00
2014-9-15,64,54,47,53,48,44,91,82,57,30.19,30.07,7,0,13,0.00
2014-9-16,72,56,45,55,47,39,96,74,43,30.19,30.10,8,1,19,0.00
2014-9-17,73,52,41,53,42,38,93,72,41,30.10,29.98,8,0,14,0.00